Terminal Aerodrome Forecast
Issued by NWS

Home | Current Version | Previous Version | Graphics & Text | Print | Product List | Glossary On
Versions: 1 2 3 4 5 6 7 8 9 10 11 12 13 14 15 16 17 18 19 20 21 22 23 24 25 26 27 28 29
000
FTUS43 KICT 181347 AAB
TAFCNU
TAF AMD
KCNU 181347Z 1814/1912 09003KT P6SM SCT008 OVC015
      TEMPO 1814/1817 4SM BR OVC007
     FM181700 07005KT P6SM OVC008
     FM182000 35005KT P6SM OVC013
     FM190200 03004KT 4SM BR OVC008=

USA.gov is the U.S. government's official web portal to all federal, state and local government web resources and services.